createdAt,value
2015-03-22T10:35:33.789Z,48
2015-03-22T10:35:47.055Z,48
2015-03-22T10:36:00.477Z,48
2015-03-22T10:36:13.727Z,48
2015-03-22T10:36:27.071Z,48
2015-03-22T10:36:42.791Z,48
2015-03-22T10:36:58.823Z,48
2015-03-22T10:37:12.198Z,49
2015-03-22T10:37:26.682Z,49
2015-03-22T10:37:41.873Z,49
2015-03-22T10:37:55.263Z,49
2015-03-22T10:38:17.013Z,49
2015-03-22T10:38:43.015Z,49
2015-03-22T10:39:03.843Z,49
2015-03-22T10:39:18.484Z,49
2015-03-22T10:39:32.627Z,49
2015-03-22T10:39:45.923Z,49
2015-03-22T10:39:58.939Z,49
2015-03-22T10:40:12.236Z,49
2015-03-22T10:40:25.439Z,49
2015-03-22T10:40:38.583Z,49
2015-03-22T10:40:51.739Z,49
2015-03-22T10:41:05.083Z,49
2015-03-22T10:41:18.333Z,49
2015-03-22T10:41:31.350Z,49
2015-03-22T10:41:44.741Z,50
2015-03-22T10:41:58.257Z,49
2015-03-22T10:42:12.569Z,49
2015-03-22T10:42:25.819Z,49
2015-03-22T10:42:38.978Z,49
2015-03-22T10:42:52.291Z,49
2015-03-22T10:43:07.010Z,49
2015-03-22T10:43:20.056Z,49
2015-03-22T10:43:34.683Z,49
2015-03-22T10:43:48.449Z,49
2015-03-22T10:44:02.262Z,49
2015-03-22T10:44:15.902Z,50
2015-03-22T10:44:30.074Z,49
2015-03-22T10:44:43.248Z,50
2015-03-22T10:44:57.123Z,50
2015-03-22T10:45:10.342Z,50
2015-03-22T10:45:23.842Z,49
2015-03-22T10:45:37.094Z,46
2015-03-22T10:45:50.187Z,46
2015-03-22T10:46:03.484Z,47
2015-03-22T10:46:16.859Z,48
2015-03-22T10:46:29.891Z,49
2015-03-22T10:46:43.174Z,49
2015-03-22T10:46:56.861Z,49
2015-03-22T10:47:10.393Z,49
2015-03-22T10:47:24.064Z,49
2015-03-22T10:47:37.552Z,49
2015-03-22T10:47:50.927Z,50
2015-03-22T10:48:04.177Z,49
2015-03-22T10:48:17.317Z,48
2015-03-22T10:48:30.661Z,49
2015-03-22T10:48:44.757Z,49
2015-03-22T10:48:57.898Z,49
2015-03-22T10:49:18.319Z,50
2015-03-22T10:49:39.996Z,50
2015-03-22T10:50:07.199Z,50
2015-03-22T10:50:27.371Z,50
2015-03-22T10:50:47.510Z,47
2015-03-22T10:51:07.120Z,42
2015-03-22T10:51:27.042Z,40
2015-03-22T10:51:46.808Z,43
2015-03-22T10:52:13.261Z,47
2015-03-22T10:52:32.308Z,47
2015-03-22T10:52:49.587Z,46
2015-03-22T10:53:07.618Z,45
2015-03-22T10:53:26.618Z,46
2015-03-22T10:53:45.351Z,47
2015-03-22T10:54:03.867Z,47
2015-03-22T10:54:22.336Z,47
2015-03-22T10:54:38.708Z,47
2015-03-22T10:54:52.224Z,47
2015-03-22T10:55:05.458Z,48
2015-03-22T10:55:18.677Z,48
2015-03-22T10:55:32.005Z,48
2015-03-22T10:55:45.200Z,48
2015-03-22T10:55:58.544Z,48
2015-03-22T10:56:11.732Z,49
2015-03-22T10:56:25.044Z,49
2015-03-22T10:56:38.550Z,48
2015-03-22T10:56:51.769Z,49
2015-03-22T10:57:04.894Z,48
2015-03-22T10:57:18.503Z,49
2015-03-22T10:57:31.800Z,48
2015-03-22T10:57:44.964Z,47
2015-03-22T10:57:58.417Z,48
2015-03-22T10:58:11.902Z,48
2015-03-22T10:58:25.167Z,48
2015-03-22T10:58:38.330Z,48
2015-03-22T10:58:51.533Z,48
2015-03-22T10:59:04.845Z,49
2015-03-22T10:59:18.189Z,48
2015-03-22T10:59:31.392Z,49
2015-03-22T10:59:44.804Z,48
2015-03-22T10:59:58.242Z,49
2015-03-22T11:00:11.351Z,48
2015-03-22T11:00:24.742Z,48
2015-03-22T11:00:38.106Z,48
2015-03-22T11:00:51.309Z,49
2015-03-22T11:01:04.638Z,49
2015-03-22T11:01:17.872Z,48
2015-03-22T11:01:31.247Z,48
2015-03-22T11:01:44.500Z,49
2015-03-22T11:01:57.719Z,49
2015-03-22T11:02:11.062Z,49
2015-03-22T11:02:24.422Z,49
2015-03-22T11:02:37.645Z,49
2015-03-22T11:02:51.020Z,49
2015-03-22T11:03:04.488Z,49
2015-03-22T11:03:17.676Z,48
2015-03-22T11:03:30.895Z,43
2015-03-22T11:03:44.367Z,42
2015-03-22T11:04:04.805Z,43
2015-03-22T11:04:18.211Z,44
2015-03-22T11:04:31.399Z,44
2015-03-22T11:04:51.870Z,46
2015-03-22T11:05:05.261Z,47
2015-03-22T11:05:18.370Z,48
2015-03-22T11:05:31.636Z,43
2015-03-22T11:05:45.031Z,40
2015-03-22T11:05:58.187Z,40
2015-03-22T11:06:11.359Z,39
2015-03-22T11:06:24.749Z,39
2015-03-22T11:06:38.077Z,39
2015-03-22T11:06:51.252Z,40
2015-03-22T11:07:04.627Z,42
2015-03-22T11:07:17.815Z,43
2015-03-22T11:07:31.268Z,43
2015-03-22T11:07:44.427Z,44
2015-03-22T11:07:57.724Z,44
2015-03-22T11:08:11.240Z,44
2015-03-22T11:08:24.568Z,45
2015-03-22T11:08:38.240Z,45
2015-03-22T11:08:51.586Z,45
2015-03-22T11:09:04.915Z,46
2015-03-22T11:09:18.071Z,46
2015-03-22T11:09:31.649Z,46
2015-03-22T11:09:45.027Z,47
2015-03-22T11:09:58.261Z,46
2015-03-22T11:10:11.511Z,47
2015-03-22T11:10:24.668Z,46
2015-03-22T11:10:38.011Z,44
2015-03-22T11:10:51.295Z,40
2015-03-22T11:11:04.545Z,39
2015-03-22T11:11:17.873Z,38
2015-03-22T11:11:31.185Z,40
2015-03-22T11:11:44.329Z,41
2015-03-22T11:11:57.657Z,42
2015-03-22T11:12:11.079Z,44
2015-03-22T11:12:24.251Z,44
2015-03-22T11:12:37.438Z,45
2015-03-22T11:12:50.737Z,45
2015-03-22T11:13:04.065Z,46
2015-03-22T11:13:17.471Z,46
2015-03-22T11:13:30.737Z,46
2015-03-22T11:13:44.130Z,46
2015-03-22T11:13:57.567Z,46
2015-03-22T11:14:10.708Z,47
2015-03-22T11:14:23.958Z,47
2015-03-22T11:14:37.302Z,46
2015-03-22T11:14:50.522Z,47
2015-03-22T11:15:03.757Z,47
2015-03-22T11:15:17.288Z,46
2015-03-22T11:15:30.616Z,46
2015-03-22T11:15:43.682Z,46
2015-03-22T11:15:57.197Z,46
2015-03-22T11:16:10.557Z,46
2015-03-22T11:16:24.416Z,47
2015-03-22T11:16:37.775Z,47
2015-03-22T11:17:19.246Z,46
2015-03-22T11:18:14.717Z,46
2015-03-22T11:19:01.829Z,44
2015-03-22T11:19:55.300Z,43
2015-03-22T11:20:08.394Z,44
2015-03-22T11:20:21.675Z,44
2015-03-22T11:20:35.175Z,44
2015-03-22T11:20:48.474Z,44
2015-03-22T11:21:01.818Z,44
2015-03-22T11:21:14.864Z,45
2015-03-22T11:21:28.208Z,45
2015-03-22T11:21:41.614Z,45
2015-03-22T11:21:54.804Z,45
2015-03-22T11:22:08.070Z,45
2015-03-22T11:22:21.507Z,45
2015-03-22T11:22:34.663Z,45
2015-03-22T11:22:47.744Z,46
2015-03-22T11:23:08.385Z,46
2015-03-22T11:23:21.744Z,46
2015-03-22T11:23:34.854Z,45
2015-03-22T11:23:48.232Z,45
2015-03-22T11:24:08.622Z,45
2015-03-22T11:24:22.076Z,46
2015-03-22T11:24:35.294Z,46
2015-03-22T11:24:48.452Z,46
2015-03-22T11:25:01.905Z,46
2015-03-22T11:25:15.186Z,46
2015-03-22T11:25:28.280Z,45
2015-03-22T11:25:41.858Z,46
2015-03-22T11:25:55.283Z,46
2015-03-22T11:26:08.423Z,45
2015-03-22T11:26:21.783Z,45
2015-03-22T11:26:35.173Z,45
2015-03-22T11:26:48.425Z,45
2015-03-22T11:27:01.597Z,45
2015-03-22T11:27:14.644Z,45
2015-03-22T11:27:28.035Z,45
2015-03-22T11:27:41.378Z,45
2015-03-22T11:27:54.522Z,45
2015-03-22T11:28:07.928Z,45
2015-03-22T11:28:21.319Z,45
2015-03-22T11:28:34.475Z,45
2015-03-22T11:28:47.727Z,45
2015-03-22T11:29:01.102Z,45
2015-03-22T11:29:14.305Z,46
2015-03-22T11:29:27.587Z,45
2015-03-22T11:29:40.899Z,45
2015-03-22T11:29:54.182Z,45
2015-03-22T11:30:07.635Z,45
2015-03-22T11:30:20.885Z,45
2015-03-22T11:30:34.229Z,45
2015-03-22T11:30:47.592Z,45
2015-03-22T11:31:00.717Z,45
2015-03-22T11:31:13.888Z,45
2015-03-22T11:31:34.654Z,45
2015-03-22T11:31:47.672Z,46
2015-03-22T11:32:00.937Z,46
2015-03-22T11:32:14.390Z,46
2015-03-22T11:32:27.656Z,46
2015-03-22T11:32:40.984Z,46
2015-03-22T11:33:01.346Z,46
2015-03-22T11:33:21.783Z,46
2015-03-22T11:33:35.221Z,46
2015-03-22T11:33:48.473Z,46
2015-03-22T11:34:01.754Z,46
2015-03-22T11:34:15.207Z,46
2015-03-22T11:34:28.426Z,46
2015-03-22T11:34:41.551Z,46
2015-03-22T11:34:55.007Z,46
2015-03-22T11:35:08.257Z,46
2015-03-22T11:35:21.429Z,46
2015-03-22T11:35:34.804Z,46
2015-03-22T11:35:47.993Z,46
2015-03-22T11:36:01.337Z,46
2015-03-22T11:36:14.634Z,46
2015-03-22T11:36:27.868Z,46
2015-03-22T11:36:41.353Z,46
2015-03-22T11:36:54.762Z,46
2015-03-22T11:37:07.949Z,46
2015-03-22T11:37:21.340Z,46
2015-03-22T11:37:34.699Z,46
2015-03-22T11:37:47.811Z,46
2015-03-22T11:38:01.108Z,46
2015-03-22T11:38:14.561Z,46
2015-03-22T11:38:27.842Z,46
2015-03-22T11:38:41.217Z,46
2015-03-22T11:38:54.438Z,42
2015-03-22T11:39:07.860Z,39
2015-03-22T11:39:21.219Z,36
2015-03-22T11:39:34.360Z,34
2015-03-22T11:39:47.612Z,33
2015-03-22T11:40:00.971Z,32
2015-03-22T11:40:14.002Z,31
2015-03-22T11:40:27.174Z,31
2015-03-22T11:40:40.580Z,31
2015-03-22T11:40:53.848Z,30
2015-03-22T11:41:07.067Z,31
2015-03-22T11:41:20.520Z,31
2015-03-22T11:41:33.754Z,31
2015-03-22T11:41:46.976Z,30
2015-03-22T11:42:00.398Z,30
2015-03-22T11:42:13.804Z,36
2015-03-22T11:42:26.913Z,40
2015-03-22T11:42:40.257Z,42
2015-03-22T11:42:53.509Z,43
2015-03-22T11:43:06.665Z,43
2015-03-22T11:43:19.931Z,44
2015-03-22T11:43:33.259Z,43
2015-03-22T11:43:46.290Z,45
2015-03-22T11:43:59.527Z,45
2015-03-22T11:44:12.714Z,45
2015-03-22T11:44:25.917Z,44
2015-03-22T11:44:39.230Z,46
2015-03-22T11:44:52.327Z,45
2015-03-22T11:45:05.545Z,45
2015-03-22T11:45:18.936Z,45
2015-03-22T11:45:32.061Z,45
2015-03-22T11:45:45.295Z,45
2015-03-22T11:45:58.657Z,45
2015-03-22T11:46:11.907Z,45
2015-03-22T11:46:25.094Z,45
2015-03-22T11:46:38.438Z,44
2015-03-22T11:46:51.754Z,44
2015-03-22T11:47:05.175Z,44
2015-03-22T11:47:18.410Z,44
2015-03-22T11:47:31.691Z,44
2015-03-22T11:47:45.207Z,43
2015-03-22T11:47:58.396Z,42
2015-03-22T11:48:12.693Z,42
2015-03-22T11:48:26.209Z,42
2015-03-22T11:48:40.552Z,42
2015-03-22T11:48:53.851Z,44
2015-03-22T11:49:09.601Z,44
2015-03-22T11:49:25.273Z,44
2015-03-22T11:49:38.461Z,44
2015-03-22T11:49:51.807Z,44
2015-03-22T11:50:05.151Z,44
2015-03-22T11:50:20.261Z,44
2015-03-22T11:50:33.542Z,44
2015-03-22T11:50:46.636Z,44
2015-03-22T11:50:59.981Z,44
2015-03-22T11:51:14.278Z,44
2015-03-22T11:51:27.559Z,44
2015-03-22T11:51:41.638Z,43
2015-03-22T11:51:54.999Z,43
2015-03-22T11:52:08.218Z,43
2015-03-22T11:52:21.577Z,43
2015-03-22T11:52:35.015Z,43
2015-03-22T11:52:48.265Z,44
2015-03-22T11:53:01.501Z,43
2015-03-22T11:53:14.532Z,43
2015-03-22T11:53:27.907Z,43
2015-03-22T11:53:41.235Z,43
2015-03-22T11:53:54.410Z,43
2015-03-22T11:54:07.723Z,43
2015-03-22T11:54:21.238Z,43
2015-03-22T11:54:34.410Z,43
2015-03-22T11:54:47.707Z,43
2015-03-22T11:55:01.084Z,43
2015-03-22T11:55:14.365Z,44
2015-03-22T11:55:27.568Z,44
2015-03-22T11:55:40.803Z,43
2015-03-22T11:55:54.178Z,43
2015-03-22T11:56:07.650Z,43
2015-03-22T11:56:20.868Z,44
2015-03-22T11:56:38.306Z,44
2015-03-22T11:56:51.775Z,44
2015-03-22T11:57:04.902Z,44
2015-03-22T11:57:18.120Z,44
2015-03-22T11:57:31.464Z,44
2015-03-22T11:57:44.683Z,44
2015-03-22T11:57:57.857Z,44
2015-03-22T11:58:11.294Z,44
2015-03-22T11:58:30.435Z,41
2015-03-22T11:58:43.747Z,39
2015-03-22T11:58:56.890Z,40
2015-03-22T11:59:09.952Z,42
2015-03-22T11:59:23.343Z,42
2015-03-22T11:59:36.624Z,42
2015-03-22T11:59:49.671Z,43
2015-03-22T12:00:03.034Z,44
2015-03-22T12:00:16.424Z,44
2015-03-22T12:00:29.596Z,45
2015-03-22T12:00:43.018Z,46
2015-03-22T12:00:56.315Z,46
2015-03-22T12:01:09.411Z,46
2015-03-22T12:01:22.676Z,46
2015-03-22T12:01:35.739Z,46
2015-03-22T12:01:49.129Z,46
2015-03-22T12:02:02.397Z,47
2015-03-22T12:02:15.428Z,47
2015-03-22T12:02:28.788Z,47
2015-03-22T12:02:42.100Z,46
2015-03-22T12:02:55.225Z,46
2015-03-22T12:03:09.009Z,46
2015-03-22T12:03:22.384Z,46
2015-03-22T12:03:35.494Z,46
2015-03-22T12:03:48.712Z,46
2015-03-22T12:04:02.058Z,45
2015-03-22T12:04:15.199Z,46
2015-03-22T12:04:28.261Z,46
2015-03-22T12:04:41.668Z,46
2015-03-22T12:04:54.949Z,46
2015-03-22T12:05:08.076Z,45
2015-03-22T12:05:21.373Z,45
2015-03-22T12:05:34.670Z,45
2015-03-22T12:05:47.779Z,45
2015-03-22T12:06:01.093Z,45
2015-03-22T12:06:14.390Z,46
2015-03-22T12:06:27.500Z,46
2015-03-22T12:06:48.015Z,45
2015-03-22T12:07:01.440Z,45
2015-03-22T12:07:14.471Z,45
2015-03-22T12:07:27.753Z,45
2015-03-22T12:07:40.909Z,45
2015-03-22T12:07:54.268Z,45
2015-03-22T12:08:07.552Z,45
2015-03-22T12:08:20.645Z,45
2015-03-22T12:08:34.973Z,45
2015-03-22T12:08:48.223Z,45
2015-03-22T12:09:01.398Z,45
2015-03-22T12:09:14.726Z,45
2015-03-22T12:09:28.133Z,45
2015-03-22T12:09:41.539Z,46
2015-03-22T12:09:54.789Z,46
2015-03-22T12:10:08.010Z,45
2015-03-22T12:10:21.338Z,45
2015-03-22T12:10:34.760Z,45
2015-03-22T12:10:47.760Z,45
2015-03-22T12:11:01.059Z,45
2015-03-22T12:11:14.340Z,45
2015-03-22T12:11:27.512Z,45
2015-03-22T12:11:40.793Z,45
2015-03-22T12:11:54.105Z,45
2015-03-22T12:12:07.421Z,45
2015-03-22T12:12:20.546Z,45
2015-03-22T12:12:33.921Z,45
2015-03-22T12:12:47.202Z,45
2015-03-22T12:13:00.593Z,45
2015-03-22T12:13:13.845Z,45
2015-03-22T12:13:27.048Z,45
2015-03-22T12:13:40.407Z,45
2015-03-22T12:13:53.642Z,45
2015-03-22T12:14:06.801Z,45
2015-03-22T12:14:20.270Z,45
2015-03-22T12:14:33.723Z,44
2015-03-22T12:14:46.817Z,44
2015-03-22T12:15:00.113Z,44
2015-03-22T12:15:13.428Z,44
2015-03-22T12:15:26.553Z,44
2015-03-22T12:15:39.912Z,44
2015-03-22T12:15:53.069Z,44
2015-03-22T12:16:06.460Z,44
2015-03-22T12:16:19.757Z,43
2015-03-22T12:16:32.929Z,36
2015-03-22T12:16:46.163Z,31
2015-03-22T12:16:59.538Z,29
2015-03-22T12:17:12.729Z,29
2015-03-22T12:17:26.010Z,28
2015-03-22T12:17:39.385Z,28
2015-03-22T12:17:52.604Z,31
2015-03-22T12:18:05.826Z,36
2015-03-22T12:18:19.263Z,38
2015-03-22T12:18:32.169Z,38
2015-03-22T12:18:45.247Z,40
2015-03-22T12:18:58.091Z,40
2015-03-22T12:19:11.093Z,41
2015-03-22T12:19:24.171Z,41
2015-03-22T12:19:36.999Z,41
2015-03-22T12:19:49.953Z,42
2015-03-22T12:20:03.064Z,42
2015-03-22T12:20:15.986Z,42
2015-03-22T12:20:28.892Z,43
2015-03-22T12:20:49.158Z,43
2015-03-22T12:21:02.126Z,43
2015-03-22T12:21:15.019Z,43
2015-03-22T12:21:28.066Z,44
2015-03-22T12:21:41.035Z,43
2015-03-22T12:21:54.128Z,43
2015-03-22T12:22:07.037Z,43
2015-03-22T12:22:19.959Z,43
2015-03-22T12:22:33.084Z,43
2015-03-22T12:22:46.068Z,44
2015-03-22T12:22:58.943Z,44
2015-03-22T12:23:12.102Z,44
2015-03-22T12:23:25.149Z,44
2015-03-22T12:23:37.993Z,44
2015-03-22T12:23:51.055Z,44
2015-03-22T12:24:04.120Z,44
2015-03-22T12:24:17.073Z,44
2015-03-22T12:24:30.042Z,44
2015-03-22T12:24:42.901Z,44
2015-03-22T12:24:55.995Z,44
2015-03-22T12:25:08.998Z,43
2015-03-22T12:25:21.873Z,44
2015-03-22T12:25:34.920Z,44
2015-03-22T12:25:47.982Z,44
2015-03-22T12:26:00.842Z,43
2015-03-22T12:26:13.874Z,44
2015-03-22T12:26:26.999Z,44
2015-03-22T12:26:39.858Z,44
2015-03-22T12:26:52.827Z,44
2015-03-22T12:27:05.986Z,44
2015-03-22T12:27:18.908Z,44
2015-03-22T12:27:31.846Z,44
2015-03-22T12:27:45.049Z,44
2015-03-22T12:27:58.002Z,44
2015-03-22T12:28:10.832Z,44
2015-03-22T12:28:23.957Z,44
2015-03-22T12:28:36.988Z,44
2015-03-22T12:28:49.848Z,44
2015-03-22T12:29:02.913Z,44
2015-03-22T12:29:15.991Z,44
2015-03-22T12:29:28.835Z,44
2015-03-22T12:29:41.929Z,44
2015-03-22T12:29:54.851Z,44
2015-03-22T12:30:07.978Z,45
2015-03-22T12:30:20.978Z,45
2015-03-22T12:30:33.853Z,45
2015-03-22T12:30:46.931Z,45
2015-03-22T12:31:00.024Z,45
2015-03-22T12:31:12.918Z,45
2015-03-22T12:31:25.949Z,45
2015-03-22T12:31:39.074Z,45
2015-03-22T12:31:51.918Z,45
2015-03-22T12:32:04.873Z,45
2015-03-22T12:32:17.998Z,45
2015-03-22T12:32:30.889Z,45
2015-03-22T12:32:43.936Z,45
2015-03-22T12:32:56.779Z,45
2015-03-22T12:33:09.719Z,45
2015-03-22T12:33:22.860Z,45
2015-03-22T12:33:35.719Z,45
2015-03-22T12:33:48.672Z,46
2015-03-22T12:34:01.781Z,46
2015-03-22T12:34:14.675Z,45
2015-03-22T12:34:27.581Z,46
2015-03-22T12:34:40.706Z,46
2015-03-22T12:34:53.691Z,46
2015-03-22T12:35:06.568Z,46
2015-03-22T12:35:19.630Z,45
2015-03-22T12:35:32.599Z,46
2015-03-22T12:35:45.708Z,45
2015-03-22T12:35:58.630Z,46
2015-03-22T12:36:11.538Z,46
2015-03-22T12:36:24.648Z,46
2015-03-22T12:36:37.648Z,46
2015-03-22T12:36:50.492Z,46
2015-03-22T12:37:03.603Z,46
2015-03-22T12:37:16.665Z,47
2015-03-22T12:37:29.572Z,46
2015-03-22T12:37:42.619Z,46
2015-03-22T12:37:55.681Z,46
2015-03-22T12:38:08.622Z,46
2015-03-22T12:38:21.575Z,47
2015-03-22T12:38:35.043Z,46
2015-03-22T12:38:48.200Z,46
2015-03-22T12:39:01.200Z,47
2015-03-22T12:39:14.061Z,47
2015-03-22T12:39:27.155Z,47
2015-03-22T12:39:40.249Z,47
2015-03-22T12:39:53.092Z,47
2015-03-22T12:40:06.079Z,46
2015-03-22T12:40:19.188Z,46
2015-03-22T12:40:32.063Z,47
2015-03-22T12:40:45.079Z,47
2015-03-22T12:40:58.047Z,46
2015-03-22T12:41:11.096Z,47
2015-03-22T12:41:24.221Z,47
2015-03-22T12:41:37.143Z,47
2015-03-22T12:41:50.143Z,47
2015-03-22T12:42:03.270Z,47
2015-03-22T12:42:16.208Z,47
2015-03-22T12:42:29.176Z,47
2015-03-22T12:42:42.317Z,48
2015-03-22T12:42:55.255Z,47
2015-03-22T12:43:08.164Z,47
2015-03-22T12:43:21.289Z,47
2015-03-22T12:43:34.258Z,48
2015-03-22T12:43:47.367Z,47
2015-03-22T12:44:00.258Z,48
2015-03-22T12:44:13.245Z,47
2015-03-22T12:44:26.354Z,48
2015-03-22T12:44:39.276Z,48
2015-03-22T12:44:52.229Z,48
2015-03-22T12:45:05.341Z,48
2015-03-22T12:45:18.294Z,47
2015-03-22T12:45:31.200Z,48
2015-03-22T12:45:44.403Z,47
2015-03-22T12:45:57.419Z,48
2015-03-22T12:46:10.280Z,48
2015-03-22T12:46:23.327Z,48
2015-03-22T12:46:36.233Z,48
2015-03-22T12:46:49.358Z,48
2015-03-22T12:47:02.405Z,48
2015-03-22T12:47:15.252Z,48
2015-03-22T12:47:28.424Z,48
2015-03-22T12:47:41.455Z,48
2015-03-22T12:47:54.346Z,48
2015-03-22T12:48:07.440Z,47
2015-03-22T12:48:20.503Z,47
2015-03-22T12:48:33.409Z,48
2015-03-22T12:48:46.472Z,48
2015-03-22T12:48:59.628Z,48
2015-03-22T12:49:13.084Z,47
2015-03-22T12:49:33.303Z,48
2015-03-22T12:49:46.522Z,48
2015-03-22T12:49:59.881Z,48
2015-03-22T12:50:12.805Z,48
2015-03-22T12:50:25.930Z,48
2015-03-22T12:50:38.899Z,48
2015-03-22T12:50:51.742Z,48
2015-03-22T12:51:04.838Z,48
2015-03-22T12:51:17.838Z,48
2015-03-22T12:51:30.729Z,48
2015-03-22T12:51:43.791Z,48
2015-03-22T12:51:56.869Z,48
2015-03-22T12:52:09.857Z,48
2015-03-22T12:52:22.857Z,48
2015-03-22T12:52:35.732Z,48
2015-03-22T12:52:48.872Z,48
2015-03-22T12:53:01.888Z,47
2015-03-22T12:53:14.718Z,47
2015-03-22T12:53:27.796Z,47
2015-03-22T12:53:40.843Z,47
2015-03-22T12:53:53.702Z,47
2015-03-22T12:54:06.673Z,48
2015-03-22T12:54:19.767Z,48
2015-03-22T12:54:32.642Z,46
2015-03-22T12:54:45.595Z,35
2015-03-22T12:54:58.564Z,30
2015-03-22T12:55:11.629Z,28
2015-03-22T12:55:24.707Z,27
2015-03-22T12:55:37.567Z,27
2015-03-22T12:55:50.614Z,27
2015-03-22T12:56:03.786Z,28
2015-03-22T12:56:16.647Z,28
2015-03-22T12:56:29.631Z,27
2015-03-22T12:56:42.772Z,27
2015-03-22T12:56:55.709Z,29
2015-03-22T12:57:08.634Z,31
2015-03-22T12:57:21.759Z,39
2015-03-22T12:57:34.775Z,45
2015-03-22T12:57:47.853Z,47
2015-03-22T12:58:00.728Z,48
2015-03-22T12:58:13.668Z,49
2015-03-22T12:58:26.761Z,49
2015-03-22T12:58:39.683Z,49
2015-03-22T12:58:52.621Z,49
2015-03-22T12:59:05.748Z,49
2015-03-22T12:59:18.685Z,49
2015-03-22T12:59:31.545Z,49
2015-03-22T12:59:44.685Z,49
2015-03-22T12:59:57.701Z,48
2015-03-22T13:00:10.578Z,44
2015-03-22T13:00:23.640Z,39
2015-03-22T13:00:36.656Z,36
2015-03-22T13:00:49.765Z,34
2015-03-22T13:01:02.765Z,32
2015-03-22T13:01:15.643Z,32
2015-03-22T13:01:28.800Z,31
2015-03-22T13:01:41.893Z,30
2015-03-22T13:01:54.846Z,30
2015-03-22T13:02:08.692Z,29
2015-03-22T13:02:21.802Z,29
2015-03-22T13:02:34.661Z,28
2015-03-22T13:02:47.661Z,28
2015-03-22T13:03:00.770Z,29
2015-03-22T13:03:13.680Z,31
2015-03-22T13:03:26.695Z,37
2015-03-22T13:03:39.555Z,36
2015-03-22T13:03:52.601Z,38
2015-03-22T13:04:12.852Z,39
2015-03-22T13:04:25.727Z,39
2015-03-22T13:04:38.759Z,39
2015-03-22T13:04:51.931Z,37
2015-03-22T13:05:04.759Z,37
2015-03-22T13:05:17.762Z,39
2015-03-22T13:05:30.840Z,38
2015-03-22T13:05:43.777Z,39
2015-03-22T13:05:56.699Z,40
2015-03-22T13:06:09.764Z,40
2015-03-22T13:06:22.795Z,40
2015-03-22T13:06:35.982Z,40
2015-03-22T13:06:48.811Z,41
2015-03-22T13:07:01.764Z,41
2015-03-22T13:07:14.907Z,42
2015-03-22T13:07:27.814Z,42
2015-03-22T13:07:40.735Z,42
2015-03-22T13:07:53.876Z,42
2015-03-22T13:08:06.860Z,42
2015-03-22T13:08:19.736Z,42
2015-03-22T13:08:33.752Z,42
2015-03-22T13:08:46.799Z,42
2015-03-22T13:08:59.877Z,42
2015-03-22T13:09:12.927Z,42
2015-03-22T13:09:25.911Z,42
2015-03-22T13:09:39.005Z,42
2015-03-22T13:09:52.005Z,42
2015-03-22T13:10:04.896Z,42
2015-03-22T13:10:18.054Z,42
2015-03-22T13:10:31.163Z,42
2015-03-22T13:10:44.038Z,42
2015-03-22T13:10:57.132Z,42
2015-03-22T13:11:17.384Z,42
2015-03-22T13:11:30.259Z,42
2015-03-22T13:11:43.275Z,42
2015-03-22T13:11:56.415Z,42
2015-03-22T13:12:09.309Z,42
2015-03-22T13:12:22.325Z,42
2015-03-22T13:12:35.450Z,42
2015-03-22T13:12:48.340Z,42
2015-03-22T13:13:01.246Z,42
2015-03-22T13:13:14.359Z,42
2015-03-22T13:13:27.312Z,42
2015-03-22T13:13:40.218Z,42
2015-03-22T13:13:53.328Z,42
2015-03-22T13:14:06.390Z,42
2015-03-22T13:14:19.298Z,42
2015-03-22T13:14:32.361Z,42
2015-03-22T13:14:45.298Z,42
2015-03-22T13:14:58.439Z,42
2015-03-22T13:15:11.441Z,42
2015-03-22T13:15:24.285Z,42
2015-03-22T13:15:37.425Z,42
2015-03-22T13:15:50.441Z,42
2015-03-22T13:16:03.300Z,42
2015-03-22T13:16:16.335Z,42
2015-03-22T13:16:29.397Z,42
2015-03-22T13:16:42.225Z,42
2015-03-22T13:16:55.225Z,42
2015-03-22T13:17:08.319Z,42
2015-03-22T13:17:21.212Z,42
2015-03-22T13:17:34.227Z,42
2015-03-22T13:17:47.087Z,42
2015-03-22T13:18:00.087Z,42
2015-03-22T13:18:13.182Z,42
2015-03-22T13:18:26.057Z,42
2015-03-22T13:18:39.089Z,42
2015-03-22T13:18:52.245Z,42
2015-03-22T13:19:05.151Z,42
2015-03-22T13:19:18.169Z,42
2015-03-22T13:19:31.294Z,42
2015-03-22T13:19:44.247Z,42
2015-03-22T13:19:57.247Z,42
2015-03-22T13:20:10.341Z,42
2015-03-22T13:20:23.405Z,42
2015-03-22T13:20:36.561Z,42
2015-03-22T13:20:49.436Z,42
2015-03-22T13:21:02.436Z,42
2015-03-22T13:21:15.580Z,42
2015-03-22T13:21:28.533Z,42
2015-03-22T13:21:41.455Z,42
2015-03-22T13:21:54.564Z,42
2015-03-22T13:22:07.533Z,42
2015-03-22T13:22:20.410Z,42
2015-03-22T13:22:33.582Z,42
2015-03-22T13:22:46.644Z,42
2015-03-22T13:22:59.488Z,42
2015-03-22T13:23:12.569Z,42
2015-03-22T13:23:25.663Z,42
2015-03-22T13:23:38.554Z,42
2015-03-22T13:23:51.601Z,42
2015-03-22T13:24:04.726Z,42
2015-03-22T13:24:17.618Z,42
2015-03-22T13:24:30.556Z,42
2015-03-22T13:24:43.665Z,42
2015-03-22T13:24:56.571Z,42
2015-03-22T13:25:09.493Z,42
2015-03-22T13:25:22.574Z,42
2015-03-22T13:25:35.559Z,43
2015-03-22T13:25:48.637Z,43
2015-03-22T13:26:01.481Z,43
2015-03-22T13:26:14.451Z,43
2015-03-22T13:26:27.576Z,43
2015-03-22T13:26:40.467Z,43
2015-03-22T13:26:53.404Z,43
2015-03-22T13:27:06.545Z,43
2015-03-22T13:27:19.547Z,43
2015-03-22T13:27:32.422Z,42
2015-03-22T13:27:45.547Z,42
2015-03-22T13:27:58.563Z,42
2015-03-22T13:28:11.453Z,42
2015-03-22T13:28:24.518Z,42
2015-03-22T13:28:37.408Z,42
2015-03-22T13:28:50.565Z,43
2015-03-22T13:29:03.533Z,43
2015-03-22T13:29:16.410Z,43
2015-03-22T13:29:29.551Z,43
2015-03-22T13:29:42.567Z,43
2015-03-22T13:29:55.426Z,43
2015-03-22T13:30:08.504Z,43
2015-03-22T13:30:21.601Z,43
2015-03-22T13:30:34.460Z,42
2015-03-22T13:30:47.538Z,42
2015-03-22T13:31:00.663Z,39
2015-03-22T13:31:13.619Z,37
2015-03-22T13:31:26.681Z,36
2015-03-22T13:31:46.744Z,36
2015-03-22T13:31:59.822Z,36
2015-03-22T13:32:12.915Z,34
2015-03-22T13:32:25.808Z,35
2015-03-22T13:32:38.839Z,35
2015-03-22T13:32:51.964Z,34
2015-03-22T13:33:04.824Z,32
2015-03-22T13:33:17.795Z,32
2015-03-22T13:33:30.936Z,32
2015-03-22T13:33:43.827Z,32
2015-03-22T13:33:56.764Z,31
2015-03-22T13:34:17.032Z,29
2015-03-22T13:34:30.016Z,27
2015-03-22T13:34:42.876Z,27
2015-03-22T13:34:56.001Z,27
2015-03-22T13:35:09.032Z,26
2015-03-22T13:35:21.878Z,25
2015-03-22T13:35:34.924Z,25
2015-03-22T13:35:48.003Z,25
2015-03-22T13:36:00.893Z,25
2015-03-22T13:36:13.924Z,25
2015-03-22T13:36:27.131Z,24
2015-03-22T13:36:40.037Z,24
2015-03-22T13:36:53.068Z,24
2015-03-22T13:37:06.115Z,23
2015-03-22T13:37:19.195Z,23
2015-03-22T13:37:32.258Z,23
2015-03-22T13:37:45.117Z,24
2015-03-22T13:37:58.086Z,24
2015-03-22T13:38:11.195Z,24
2015-03-22T13:38:24.838Z,24
2015-03-22T13:38:38.228Z,23
2015-03-22T13:38:51.400Z,23
2015-03-22T13:39:04.306Z,24
2015-03-22T13:39:17.200Z,24
2015-03-22T13:39:30.309Z,25
2015-03-22T13:39:43.278Z,25
2015-03-22T13:39:56.356Z,25
2015-03-22T13:40:09.200Z,25
2015-03-22T13:40:22.140Z,26
2015-03-22T13:40:35.280Z,26
2015-03-22T13:40:48.218Z,26
2015-03-22T13:41:01.124Z,26
2015-03-22T13:41:14.311Z,26
2015-03-22T13:41:27.313Z,26
2015-03-22T13:41:40.204Z,27
2015-03-22T13:41:53.345Z,27
2015-03-22T13:42:06.313Z,26
2015-03-22T13:42:19.176Z,26
2015-03-22T13:42:32.223Z,26
2015-03-22T13:42:45.191Z,25
2015-03-22T13:42:58.316Z,25
2015-03-22T13:43:11.285Z,24
2015-03-22T13:43:31.303Z,25
2015-03-22T13:43:44.428Z,25
2015-03-22T13:43:57.490Z,25
2015-03-22T13:44:10.350Z,25
2015-03-22T13:44:23.414Z,25
2015-03-22T13:44:36.508Z,26
2015-03-22T13:44:49.383Z,26
2015-03-22T13:45:02.414Z,26
2015-03-22T13:45:15.539Z,27
2015-03-22T13:45:28.464Z,27
2015-03-22T13:45:41.542Z,27
2015-03-22T13:45:54.433Z,27
2015-03-22T13:46:07.527Z,27
2015-03-22T13:46:20.654Z,27
2015-03-22T13:46:33.529Z,27
2015-03-22T13:46:46.544Z,27
2015-03-22T13:46:59.685Z,27
2015-03-22T13:47:12.560Z,27
2015-03-22T13:47:25.531Z,26
2015-03-22T13:47:38.640Z,26
2015-03-22T13:47:51.640Z,26
2015-03-22T13:48:04.546Z,25
2015-03-22T13:48:17.577Z,25
2015-03-22T13:48:30.595Z,25
2015-03-22T13:48:43.736Z,25
2015-03-22T13:48:56.595Z,25
2015-03-22T13:49:09.564Z,25
2015-03-22T13:49:22.706Z,25
2015-03-22T13:49:35.644Z,25
2015-03-22T13:49:48.550Z,25
2015-03-22T13:50:01.675Z,26
2015-03-22T13:50:14.644Z,26